Terminal Aerodrome Forecast
Issued by NWS Tallahassee, FL

Home | Current Version | Previous Version | Text Only | Print | Product List | Glossary On
Versions: 1 2 3 4 5 6 7 8 9 10 11 12 13
000
FTUS42 KTAE 211100
TAFTLH
TAF
KTLH 211135Z 2112/2212 06006KT P6SM OVC008
     FM211900 07005KT 6SM -RA OVC012
     FM220200 10004KT 4SM RA OVC007
     FM220600 09005KT 6SM -RA OVC004=

USA.gov is the U.S. government's official web portal to all federal, state and local government web resources and services.